createdAt,value
2023-03-28T00:01:15.053Z,98266.59
2023-03-28T00:03:43.897Z,98267.56
2023-03-28T00:06:17.461Z,98264.91
2023-03-28T00:08:48.332Z,98268.47
2023-03-28T00:11:20.733Z,98263.97
2023-03-28T00:14:04.458Z,98271.66
2023-03-28T00:16:36.206Z,98277.84
2023-03-28T00:19:08.359Z,98276.03
2023-03-28T00:21:41.057Z,98277.75
2023-03-28T00:24:15.918Z,98282.03
2023-03-28T00:26:46.467Z,98289.00
2023-03-28T00:29:17.579Z,98293.34
2023-03-28T00:31:46.774Z,98291.16
2023-03-28T00:34:15.589Z,98291.25
2023-03-28T00:36:44.513Z,98303.22
2023-03-28T00:39:14.399Z,98297.09
2023-03-28T00:41:45.537Z,98297.91
2023-03-28T00:44:42.787Z,98304.47
2023-03-28T00:47:14.428Z,98302.00
2023-03-28T00:49:47.864Z,98302.91
2023-03-28T00:52:19.535Z,98305.41
2023-03-28T00:54:49.251Z,98302.91
2023-03-28T00:57:19.860Z,98307.25
2023-03-28T00:59:48.780Z,98308.94
2023-03-28T01:02:17.835Z,98314.97
2023-03-28T01:04:56.114Z,98319.97
2023-03-28T01:07:31.014Z,98321.84
2023-03-28T01:10:00.579Z,98324.38
2023-03-28T01:12:29.470Z,98327.72
2023-03-28T01:14:59.223Z,98336.28
2023-03-28T01:17:37.981Z,98332.75
2023-03-28T01:20:15.616Z,98333.31
2023-03-28T01:23:21.807Z,98329.50
2023-03-28T01:26:12.940Z,98336.28
2023-03-28T01:29:00.512Z,98336.22
2023-03-28T01:32:08.049Z,98339.50
2023-03-28T01:35:23.922Z,98340.97
2023-03-28T01:38:46.868Z,98338.81
2023-03-28T01:41:28.599Z,98338.81
2023-03-28T01:44:36.191Z,98349.63
2023-03-28T01:47:42.725Z,98350.13
2023-03-28T01:50:14.504Z,98339.47
2023-03-28T01:53:07.216Z,98351.47
2023-03-28T01:56:10.768Z,98350.94
2023-03-28T01:59:13.163Z,98358.28
2023-03-28T02:02:19.314Z,98361.59
2023-03-28T02:04:49.928Z,98362.50
2023-03-28T02:07:25.669Z,98371.56
2023-03-28T02:10:26.334Z,98367.16
2023-03-28T02:13:09.028Z,98379.03
2023-03-28T02:16:04.230Z,98378.91
2023-03-28T02:18:58.701Z,98381.41
2023-03-28T02:21:59.688Z,98380.25
2023-03-28T02:24:35.119Z,98383.63
2023-03-28T02:27:14.638Z,98392.03
2023-03-28T02:29:55.878Z,98384.81
2023-03-28T02:32:36.784Z,98392.13
2023-03-28T02:35:08.150Z,98398.28
2023-03-28T02:37:58.128Z,98403.06
2023-03-28T02:40:32.985Z,98406.88
2023-03-28T02:43:38.581Z,98404.88
2023-03-28T02:46:25.610Z,98404.91
2023-03-28T02:49:18.892Z,98415.97
2023-03-28T02:51:59.496Z,98419.06
2023-03-28T02:54:37.877Z,98415.03
2023-03-28T02:57:40.116Z,98419.53
2023-03-28T03:00:17.476Z,98426.63
2023-03-28T03:02:51.482Z,98423.81
2023-03-28T03:05:22.449Z,98433.91
2023-03-28T03:07:52.591Z,98440.16
2023-03-28T03:10:22.929Z,98445.25
2023-03-28T03:12:52.785Z,98451.66
2023-03-28T03:15:21.850Z,98454.38
2023-03-28T03:17:55.024Z,98445.06
2023-03-28T03:20:34.237Z,98451.59
2023-03-28T03:23:05.066Z,98445.66
2023-03-28T03:25:36.867Z,98446.13
2023-03-28T03:28:21.338Z,98453.44
2023-03-28T03:30:54.282Z,98448.06
2023-03-28T03:33:43.182Z,98464.59
2023-03-28T03:36:14.285Z,98461.06
2023-03-28T03:38:43.377Z,98461.44
2023-03-28T03:41:17.345Z,98466.03
2023-03-28T03:43:47.334Z,98477.31
2023-03-28T03:46:16.455Z,98477.88
2023-03-28T03:48:49.370Z,98483.16
2023-03-28T03:51:20.038Z,98480.81
2023-03-28T03:53:52.646Z,98488.19
2023-03-28T03:56:27.005Z,98487.84
2023-03-28T03:59:00.805Z,98488.75
2023-03-28T04:01:33.092Z,98485.00
2023-03-28T04:04:28.995Z,98494.25
2023-03-28T04:07:21.388Z,98493.50
2023-03-28T04:09:53.343Z,98494.09
2023-03-28T04:12:22.792Z,98489.94
2023-03-28T04:14:53.392Z,98491.00
2023-03-28T04:17:45.301Z,98495.66
2023-03-28T04:20:18.967Z,98495.34
2023-03-28T04:23:02.231Z,98495.94
2023-03-28T04:25:33.091Z,98500.31
2023-03-28T04:28:06.776Z,98505.88
2023-03-28T04:30:39.802Z,98497.38
2023-03-28T04:33:28.439Z,98505.91
2023-03-28T04:36:03.864Z,98507.19
2023-03-28T04:38:38.240Z,98507.84
2023-03-28T04:41:23.711Z,98509.19
2023-03-28T04:44:04.238Z,98512.84
2023-03-28T04:46:39.785Z,98508.97
2023-03-28T04:49:15.091Z,98510.22
2023-03-28T04:51:44.212Z,98508.69
2023-03-28T04:54:13.103Z,98508.69
2023-03-28T04:57:03.384Z,98506.28
2023-03-28T04:59:43.523Z,98507.00
2023-03-28T05:02:18.470Z,98507.81
2023-03-28T05:05:01.439Z,98504.16
2023-03-28T05:07:30.560Z,98501.75
2023-03-28T05:09:59.327Z,98499.56
2023-03-28T05:12:35.404Z,98492.63
2023-03-28T05:15:07.373Z,98487.72
2023-03-28T05:17:48.860Z,98499.81
2023-03-28T05:20:28.882Z,98495.50
2023-03-28T05:22:59.418Z,98505.44
2023-03-28T05:25:29.844Z,98503.41
2023-03-28T05:27:58.787Z,98496.09
2023-03-28T05:30:27.775Z,98502.34
2023-03-28T05:32:59.299Z,98501.28
2023-03-28T05:35:29.504Z,98498.72
2023-03-28T05:37:59.168Z,98494.34
2023-03-28T05:40:28.626Z,98492.72
2023-03-28T05:42:57.383Z,98483.19
2023-03-28T05:45:26.559Z,98487.91
2023-03-28T05:48:08.400Z,98481.31
2023-03-28T05:50:38.336Z,98467.63
2023-03-28T05:53:07.758Z,98461.78
2023-03-28T05:55:36.726Z,98466.69
2023-03-28T05:58:07.272Z,98470.25
2023-03-28T06:00:43.785Z,98472.84
2023-03-28T06:03:16.788Z,98474.59
2023-03-28T06:05:48.439Z,98482.38
2023-03-28T06:08:21.520Z,98472.06
2023-03-28T06:10:50.700Z,98476.88
2023-03-28T06:13:23.378Z,98466.03
2023-03-28T06:15:53.102Z,98474.81
2023-03-28T06:18:30.525Z,98467.69
2023-03-28T06:20:59.880Z,98471.78
2023-03-28T06:23:28.763Z,98475.97
2023-03-28T06:25:58.365Z,98476.25
2023-03-28T06:28:33.759Z,98474.81
2023-03-28T06:31:15.999Z,98477.09
2023-03-28T06:33:46.096Z,98477.31
2023-03-28T06:36:15.147Z,98479.72
2023-03-28T06:38:44.323Z,98480.31
2023-03-28T06:41:14.180Z,98481.00
2023-03-28T06:43:43.265Z,98480.34
2023-03-28T06:46:32.182Z,98477.09
2023-03-28T06:49:01.902Z,98472.78
2023-03-28T06:51:49.053Z,98471.41
2023-03-28T06:54:18.100Z,98469.41
2023-03-28T06:56:47.140Z,98472.84
2023-03-28T06:59:16.298Z,98467.25
2023-03-28T07:01:47.688Z,98467.31
2023-03-28T07:04:19.337Z,98459.09
2023-03-28T07:06:48.860Z,98457.88
2023-03-28T07:09:17.696Z,98451.44
2023-03-28T07:11:56.257Z,98455.91
2023-03-28T07:14:25.578Z,98454.53
2023-03-28T07:16:54.518Z,98447.00
2023-03-28T07:19:23.892Z,98447.75
2023-03-28T07:21:54.330Z,98449.25
2023-03-28T07:24:25.118Z,98446.41
2023-03-28T07:27:45.764Z,98441.88
2023-03-28T07:30:17.018Z,98441.31
2023-03-28T07:32:55.725Z,98434.28
2023-03-28T07:35:31.118Z,98440.41
2023-03-28T07:42:03.597Z,98425.25
2023-03-28T07:44:32.596Z,98423.44
2023-03-28T07:47:02.765Z,98421.00
2023-03-28T07:49:32.034Z,98427.34
2023-03-28T07:52:01.974Z,98418.81
2023-03-28T07:54:34.129Z,98411.72
2023-03-28T07:57:03.115Z,98407.75
2023-03-28T07:59:52.551Z,98413.00
2023-03-28T08:02:21.781Z,98404.16
2023-03-28T08:04:51.063Z,98404.59
2023-03-28T08:07:26.605Z,98391.84
2023-03-28T08:09:58.400Z,98386.66
2023-03-28T08:12:31.299Z,98398.72
2023-03-28T08:15:00.911Z,98395.66
2023-03-28T08:17:31.840Z,98393.97
2023-03-28T08:20:01.123Z,98396.91
2023-03-28T08:22:29.887Z,98391.44
2023-03-28T08:25:18.926Z,98381.31
2023-03-28T08:27:48.864Z,98385.00
2023-03-28T08:30:17.956Z,98386.81
2023-03-28T08:32:55.281Z,98370.94
2023-03-28T08:35:24.533Z,98375.47
2023-03-28T08:37:56.863Z,98372.38
2023-03-28T08:40:29.209Z,98359.59
2023-03-28T08:43:24.212Z,98367.22
2023-03-28T08:45:57.024Z,98362.91
2023-03-28T08:48:41.586Z,98356.13
2023-03-28T08:51:27.129Z,98350.78
2023-03-28T08:54:22.825Z,98345.41
2023-03-28T08:57:01.633Z,98338.88
2023-03-28T08:59:34.677Z,98338.50
2023-03-28T09:02:04.995Z,98333.63
2023-03-28T09:04:36.681Z,98329.41
2023-03-28T09:07:32.305Z,98336.19
2023-03-28T09:10:14.925Z,98322.16
2023-03-28T09:12:59.302Z,98323.16
2023-03-28T09:15:46.792Z,98316.63
2023-03-28T09:18:39.895Z,98307.03
2023-03-28T09:21:32.327Z,98303.09
2023-03-28T09:24:05.162Z,98302.28
2023-03-28T09:27:35.557Z,98303.94
2023-03-28T09:30:20.697Z,98300.75
2023-03-28T09:32:54.270Z,98300.34
2023-03-28T09:35:25.507Z,98298.56
2023-03-28T09:38:01.786Z,98296.06
2023-03-28T09:40:36.727Z,98294.38
2023-03-28T09:43:37.942Z,98282.22
2023-03-28T09:46:44.372Z,98293.22
2023-03-28T09:49:50.755Z,98289.72
2023-03-28T09:52:25.164Z,98280.03
2023-03-28T09:54:54.779Z,98277.63
2023-03-28T09:57:24.620Z,98274.38
2023-03-28T09:59:59.766Z,98272.03
2023-03-28T10:02:42.700Z,98272.53
2023-03-28T10:05:32.903Z,98256.22
2023-03-28T10:08:26.403Z,98260.56
2023-03-28T10:11:18.354Z,98253.53
2023-03-28T10:13:52.290Z,98257.56
2023-03-28T10:16:31.856Z,98256.41
2023-03-28T10:19:15.171Z,98252.84
2023-03-28T10:21:57.393Z,98257.56
2023-03-28T10:24:30.790Z,98254.66
2023-03-28T10:27:26.730Z,98254.25
2023-03-28T10:30:09.880Z,98250.78
2023-03-28T10:32:39.842Z,98257.34
2023-03-28T10:35:27.134Z,98251.16
2023-03-28T10:38:06.008Z,98235.47
2023-03-28T10:41:10.806Z,98237.59
2023-03-28T10:43:59.693Z,98228.34
2023-03-28T10:46:44.819Z,98229.75
2023-03-28T10:49:21.883Z,98228.81
2023-03-28T10:51:59.046Z,98226.06
2023-03-28T10:54:41.113Z,98226.22
2023-03-28T10:57:59.863Z,98229.69
2023-03-28T11:00:43.500Z,98227.34
2023-03-28T11:03:49.198Z,98231.31
2023-03-28T11:06:35.901Z,98234.44
2023-03-28T11:09:26.992Z,98229.34
2023-03-28T11:12:54.315Z,98220.25
2023-03-28T11:15:47.851Z,98217.63
2023-03-28T11:18:50.183Z,98222.72
2023-03-28T11:21:50.513Z,98216.75
2023-03-28T11:24:42.806Z,98223.28
2023-03-28T11:27:36.760Z,98221.69
2023-03-28T11:30:21.433Z,98224.31
2023-03-28T11:33:38.105Z,98225.13
2023-03-28T11:36:23.082Z,98223.56
2023-03-28T11:39:14.896Z,98228.34
2023-03-28T11:41:47.705Z,98229.56
2023-03-28T11:44:57.191Z,98229.31
2023-03-28T11:47:36.015Z,98234.19
2023-03-28T11:50:22.830Z,98235.44
2023-03-28T11:53:13.840Z,98227.34
2023-03-28T11:56:15.506Z,98234.72
2023-03-28T11:59:58.577Z,98236.44
2023-03-28T12:02:32.107Z,98232.97
2023-03-28T12:05:20.997Z,98232.53
2023-03-28T12:08:08.224Z,98239.59
2023-03-28T12:10:41.033Z,98236.63
2023-03-28T12:13:45.478Z,98239.59
2023-03-28T12:16:50.286Z,98246.84
2023-03-28T12:19:41.960Z,98235.69
2023-03-28T12:22:33.423Z,98234.44
2023-03-28T12:25:30.257Z,98241.19
2023-03-28T12:28:46.700Z,98239.84
2023-03-28T12:31:32.872Z,98235.94
2023-03-28T12:34:40.318Z,98235.47
2023-03-28T12:37:49.455Z,98233.47
2023-03-28T12:41:01.131Z,98236.63
2023-03-28T12:43:52.858Z,98242.31
2023-03-28T12:46:38.008Z,98247.88
2023-03-28T12:49:15.805Z,98243.22
2023-03-28T12:51:51.376Z,98247.22
2023-03-28T12:54:29.341Z,98252.63
2023-03-28T12:57:09.335Z,98258.72
2023-03-28T13:00:14.447Z,98252.69
2023-03-28T13:03:09.213Z,98252.53
2023-03-28T13:06:04.122Z,98258.22
2023-03-28T13:09:09.405Z,98249.78
2023-03-28T13:11:50.776Z,98256.59
2023-03-28T13:14:42.571Z,98253.84
2023-03-28T13:17:40.214Z,98253.22
2023-03-28T13:20:18.592Z,98256.41
2023-03-28T13:22:59.059Z,98254.94
2023-03-28T13:25:33.808Z,98256.47
2023-03-28T13:28:32.234Z,98255.72
2023-03-28T13:31:21.892Z,98255.34
2023-03-28T13:33:59.294Z,98262.75
2023-03-28T13:36:37.442Z,98263.03
2023-03-28T13:39:10.296Z,98269.03
2023-03-28T13:41:48.522Z,98272.41
2023-03-28T13:44:46.132Z,98280.47
2023-03-28T13:47:24.236Z,98283.53
2023-03-28T13:50:01.084Z,98288.13
2023-03-28T13:52:30.304Z,98292.09
2023-03-28T13:55:03.701Z,98296.38
2023-03-28T13:57:32.991Z,98293.75
2023-03-28T14:00:06.868Z,98301.59
2023-03-28T14:02:49.078Z,98314.78
2023-03-28T14:05:28.758Z,98311.63
2023-03-28T14:08:20.989Z,98318.72
2023-03-28T14:10:52.411Z,98325.44
2023-03-28T14:13:26.212Z,98336.03
2023-03-28T14:15:56.865Z,98336.72
2023-03-28T14:18:41.161Z,98332.25
2023-03-28T14:21:11.134Z,98347.72
2023-03-28T14:23:43.345Z,98348.84
2023-03-28T14:26:19.648Z,98351.56
2023-03-28T14:28:48.921Z,98359.00
2023-03-28T14:31:38.515Z,98360.28
2023-03-28T14:34:27.240Z,98360.44
2023-03-28T14:37:01.833Z,98368.06
2023-03-28T14:39:33.413Z,98375.16
2023-03-28T14:42:09.337Z,98369.94
2023-03-28T14:44:43.632Z,98374.53
2023-03-28T14:47:30.919Z,98371.75
2023-03-28T14:50:02.544Z,98382.91
2023-03-28T14:52:41.830Z,98387.22
2023-03-28T14:55:18.607Z,98395.22
2023-03-28T14:57:55.806Z,98395.41
2023-03-28T15:00:34.417Z,98402.56
2023-03-28T15:03:06.556Z,98405.81
2023-03-28T15:05:37.526Z,98401.31
2023-03-28T15:08:07.431Z,98407.56
2023-03-28T15:10:37.374Z,98411.22
2023-03-28T15:13:35.936Z,98416.44
2023-03-28T15:16:09.667Z,98427.75
2023-03-28T15:18:47.863Z,98420.75
2023-03-28T15:21:17.996Z,98421.25
2023-03-28T15:24:16.518Z,98419.88
2023-03-28T15:26:52.113Z,98422.09
2023-03-28T15:29:23.137Z,98430.09
2023-03-28T15:31:57.563Z,98428.50
2023-03-28T15:34:30.656Z,98441.59
2023-03-28T15:37:06.042Z,98446.31
2023-03-28T15:39:38.496Z,98448.94
2023-03-28T15:42:23.649Z,98456.84
2023-03-28T15:44:58.465Z,98463.47
2023-03-28T15:47:31.009Z,98459.00
2023-03-28T15:50:08.039Z,98455.63
2023-03-28T15:52:37.546Z,98454.22
2023-03-28T15:55:07.489Z,98454.22
2023-03-28T15:57:37.420Z,98450.84
2023-03-28T16:00:07.880Z,98458.06
2023-03-28T16:02:41.815Z,98464.31
2023-03-28T16:05:17.244Z,98471.16
2023-03-28T16:07:49.470Z,98470.72
2023-03-28T16:10:22.754Z,98470.56
2023-03-28T16:13:24.394Z,98463.25
2023-03-28T16:16:25.187Z,98465.50
2023-03-28T16:19:26.909Z,98469.13
2023-03-28T16:21:57.895Z,98475.03
2023-03-28T16:24:28.245Z,98480.28
2023-03-28T16:26:57.224Z,98479.47
2023-03-28T16:29:26.498Z,98483.03
2023-03-28T16:31:55.535Z,98482.41
2023-03-28T16:34:24.497Z,98481.50
2023-03-28T16:36:53.361Z,98479.09
2023-03-28T16:39:22.422Z,98487.03
2023-03-28T16:41:51.571Z,98481.97
2023-03-28T16:44:20.706Z,98481.97
2023-03-28T16:46:51.978Z,98476.78
2023-03-28T16:49:20.942Z,98475.09
2023-03-28T16:51:49.788Z,98469.16
2023-03-28T16:54:19.201Z,98469.31
2023-03-28T16:56:48.614Z,98462.56
2023-03-28T16:59:18.034Z,98465.31
2023-03-28T17:01:48.772Z,98458.38
2023-03-28T17:04:17.871Z,98459.28
2023-03-28T17:06:46.800Z,98459.28
2023-03-28T17:09:15.826Z,98452.34
2023-03-28T17:11:44.715Z,98454.34
2023-03-28T17:14:13.790Z,98457.97
2023-03-28T17:16:42.961Z,98456.38
2023-03-28T17:19:12.010Z,98451.25
2023-03-28T17:21:43.105Z,98461.16
2023-03-28T17:24:12.696Z,98455.53
2023-03-28T17:26:41.512Z,98452.00
2023-03-28T17:29:12.883Z,98452.16
2023-03-28T17:31:42.096Z,98455.53
2023-03-28T17:34:12.142Z,98452.88
2023-03-28T17:36:42.495Z,98449.50
2023-03-28T17:39:12.656Z,98452.16
2023-03-28T17:41:42.730Z,98446.94
2023-03-28T17:44:12.000Z,98448.53
2023-03-28T17:46:41.248Z,98442.63
2023-03-28T17:49:10.358Z,98444.31
2023-03-28T17:51:40.222Z,98444.53
2023-03-28T17:54:12.841Z,98440.47
2023-03-28T17:56:42.567Z,98437.22
2023-03-28T17:59:12.837Z,98441.50
2023-03-28T18:01:42.064Z,98439.75
2023-03-28T18:04:10.947Z,98436.38
2023-03-28T18:06:41.533Z,98428.59
2023-03-28T18:09:10.808Z,98428.75
2023-03-28T18:11:40.233Z,98426.22
2023-03-28T18:14:09.712Z,98428.00
2023-03-28T18:16:39.755Z,98424.59
2023-03-28T18:19:13.371Z,98432.56
2023-03-28T18:21:42.621Z,98433.72
2023-03-28T18:24:11.479Z,98432.97
2023-03-28T18:26:40.602Z,98445.41
2023-03-28T18:29:09.672Z,98443.69
2023-03-28T18:31:39.895Z,98443.91
2023-03-28T18:34:09.095Z,98445.81
2023-03-28T18:36:44.793Z,98439.06
2023-03-28T18:39:14.534Z,98448.06
2023-03-28T18:41:43.313Z,98450.13
2023-03-28T18:44:12.415Z,98437.91
2023-03-28T18:46:41.222Z,98444.19
2023-03-28T18:49:10.184Z,98447.06
2023-03-28T18:51:39.373Z,98436.69
2023-03-28T18:54:08.418Z,98437.59
2023-03-28T18:56:37.226Z,98436.06
2023-03-28T18:59:06.978Z,98424.91
2023-03-28T19:01:36.721Z,98421.50
2023-03-28T19:04:05.722Z,98420.66
2023-03-28T19:06:37.675Z,98426.72
2023-03-28T19:09:07.214Z,98428.63
2023-03-28T19:11:36.295Z,98419.84
2023-03-28T19:14:05.612Z,98423.34
2023-03-28T19:16:34.478Z,98420.88
2023-03-28T19:19:03.604Z,98409.66
2023-03-28T19:21:32.508Z,98421.94
2023-03-28T19:24:01.858Z,98418.56
2023-03-28T19:26:30.865Z,98413.47
2023-03-28T19:29:02.745Z,98424.72
2023-03-28T19:31:32.231Z,98422.19
2023-03-28T19:34:01.206Z,98419.63
2023-03-28T19:36:30.355Z,98421.31
2023-03-28T19:38:59.168Z,98420.47
2023-03-28T19:41:28.339Z,98423.91
2023-03-28T19:43:57.284Z,98426.50
2023-03-28T19:46:48.958Z,98428.19
2023-03-28T19:49:18.328Z,98431.03
2023-03-28T19:51:47.070Z,98419.13
2023-03-28T19:54:16.155Z,98423.41
2023-03-28T19:56:45.926Z,98420.16
2023-03-28T19:59:15.189Z,98417.59
2023-03-28T20:01:44.381Z,98421.88
2023-03-28T20:04:13.984Z,98415.94
2023-03-28T20:06:43.198Z,98419.31
2023-03-28T20:09:12.554Z,98409.72
2023-03-28T20:11:43.100Z,98410.72
2023-03-28T20:14:12.602Z,98419.44
2023-03-28T20:16:41.856Z,98412.53
2023-03-28T20:19:11.919Z,98412.66
2023-03-28T20:21:42.049Z,98412.75
2023-03-28T20:24:12.680Z,98410.28
2023-03-28T20:26:42.836Z,98406.94
2023-03-28T20:29:15.326Z,98404.34
2023-03-28T20:31:45.595Z,98401.06
2023-03-28T20:34:15.876Z,98401.06
2023-03-28T20:36:47.845Z,98397.56
2023-03-28T20:39:18.363Z,98406.22
2023-03-28T20:41:50.135Z,98401.06
2023-03-28T20:44:21.652Z,98407.34
2023-03-28T20:46:51.886Z,98400.47
2023-03-28T20:49:22.961Z,98403.16
2023-03-28T20:51:53.731Z,98406.81
2023-03-28T20:54:26.144Z,98401.59
2023-03-28T20:56:57.197Z,98396.34
2023-03-28T20:59:28.868Z,98400.88
2023-03-28T21:01:59.358Z,98399.44
2023-03-28T21:04:29.515Z,98400.28
2023-03-28T21:06:59.407Z,98412.28
2023-03-28T21:09:30.165Z,98406.34
2023-03-28T21:12:00.170Z,98403.03
2023-03-28T21:14:30.824Z,98404.06
2023-03-28T21:17:01.287Z,98404.19
2023-03-28T21:19:31.609Z,98406.16
2023-03-28T21:22:02.426Z,98405.22
2023-03-28T21:24:32.761Z,98402.56
2023-03-28T21:27:03.076Z,98394.81
2023-03-28T21:29:33.549Z,98386.22
2023-03-28T21:32:03.802Z,98387.13
2023-03-28T21:34:36.879Z,98382.75
2023-03-28T21:37:07.589Z,98378.41
2023-03-28T21:39:37.998Z,98375.88
2023-03-28T21:42:08.909Z,98370.69
2023-03-28T21:44:39.744Z,98363.91
2023-03-28T21:47:09.622Z,98366.50
2023-03-28T21:49:39.759Z,98366.50
2023-03-28T21:52:09.693Z,98358.81
2023-03-28T21:54:39.723Z,98358.88
2023-03-28T21:57:10.110Z,98355.50
2023-03-28T21:59:41.321Z,98349.56
2023-03-28T22:02:11.810Z,98346.31
2023-03-28T22:04:42.589Z,98337.69
2023-03-28T22:07:12.951Z,98331.63
2023-03-28T22:09:43.746Z,98333.22
2023-03-28T22:12:16.346Z,98329.84
2023-03-28T22:14:45.999Z,98328.47
2023-03-28T22:17:15.953Z,98331.59
2023-03-28T22:19:46.018Z,98336.78
2023-03-28T22:22:19.223Z,98330.94
2023-03-28T22:24:49.442Z,98343.16
2023-03-28T22:27:19.253Z,98343.16
2023-03-28T22:29:49.489Z,98337.09
2023-03-28T22:32:19.473Z,98339.78
2023-03-28T22:34:49.701Z,98341.72
2023-03-28T22:37:20.432Z,98342.56
2023-03-28T22:39:50.728Z,98338.47
2023-03-28T22:42:20.954Z,98341.00
2023-03-28T22:44:51.369Z,98332.34
2023-03-28T22:47:21.462Z,98332.34
2023-03-28T22:49:55.197Z,98334.97
2023-03-28T22:52:27.485Z,98328.09
2023-03-28T22:54:57.957Z,98322.13
2023-03-28T22:57:28.491Z,98324.78
2023-03-28T22:59:59.377Z,98319.78
2023-03-28T23:02:30.432Z,98325.75
2023-03-28T23:05:00.292Z,98314.50
2023-03-28T23:07:30.476Z,98318.84
2023-03-28T23:10:00.607Z,98327.59
2023-03-28T23:12:30.957Z,98320.97
2023-03-28T23:15:01.026Z,98317.63
2023-03-28T23:17:30.192Z,98319.47
2023-03-28T23:19:59.414Z,98319.53
2023-03-28T23:22:28.432Z,98314.31
2023-03-28T23:24:57.513Z,98310.94
2023-03-28T23:27:26.443Z,98318.63
2023-03-28T23:29:55.583Z,98313.28
2023-03-28T23:32:24.455Z,98316.75
2023-03-28T23:34:54.624Z,98322.03
2023-03-28T23:37:27.062Z,98321.91
2023-03-28T23:39:57.205Z,98322.72
2023-03-28T23:42:26.575Z,98323.78
2023-03-28T23:44:55.432Z,98325.31
2023-03-28T23:47:24.756Z,98322.84
2023-03-28T23:49:53.560Z,98332.31
2023-03-28T23:52:22.918Z,98331.25
2023-03-28T23:54:51.728Z,98343.63
2023-03-28T23:57:20.897Z,98343.75
2023-03-28T23:59:49.814Z,98342.94
